sensor_id;sensor_type;location;lat;lon;timestamp;temperature;humidity
78779;DHT22;68121;52.404;5.318;2023-05-07T00:00:11;15.00;75.20
78779;DHT22;68121;52.404;5.318;2023-05-07T00:02:37;15.00;75.30
78779;DHT22;68121;52.404;5.318;2023-05-07T00:05:04;15.00;75.30
78779;DHT22;68121;52.404;5.318;2023-05-07T00:07:30;15.00;75.20
78779;DHT22;68121;52.404;5.318;2023-05-07T00:09:56;15.00;75.30
78779;DHT22;68121;52.404;5.318;2023-05-07T00:12:22;15.00;75.30
78779;DHT22;68121;52.404;5.318;2023-05-07T00:14:48;15.00;75.30
78779;DHT22;68121;52.404;5.318;2023-05-07T00:17:14;15.00;75.30
78779;DHT22;68121;52.404;5.318;2023-05-07T00:19:40;15.00;75.30
78779;DHT22;68121;52.404;5.318;2023-05-07T00:22:07;15.00;75.30
78779;DHT22;68121;52.404;5.318;2023-05-07T00:24:33;15.00;75.40
78779;DHT22;68121;52.404;5.318;2023-05-07T00:27:00;15.00;75.30
78779;DHT22;68121;52.404;5.318;2023-05-07T00:29:26;15.00;75.30
78779;DHT22;68121;52.404;5.318;2023-05-07T00:31:52;15.00;75.20
78779;DHT22;68121;52.404;5.318;2023-05-07T00:34:20;15.00;75.20
78779;DHT22;68121;52.404;5.318;2023-05-07T00:36:46;15.00;75.20
78779;DHT22;68121;52.404;5.318;2023-05-07T00:39:12;15.00;75.10
78779;DHT22;68121;52.404;5.318;2023-05-07T00:41:38;14.90;75.10
78779;DHT22;68121;52.404;5.318;2023-05-07T00:44:04;14.90;75.00
78779;DHT22;68121;52.404;5.318;2023-05-07T00:46:31;14.80;75.00
78779;DHT22;68121;52.404;5.318;2023-05-07T00:48:57;14.80;75.00
78779;DHT22;68121;52.404;5.318;2023-05-07T00:51:24;14.80;75.00
78779;DHT22;68121;52.404;5.318;2023-05-07T00:53:51;14.80;75.00
78779;DHT22;68121;52.404;5.318;2023-05-07T00:56:17;14.70;74.90
78779;DHT22;68121;52.404;5.318;2023-05-07T00:58:43;14.70;74.90
78779;DHT22;68121;52.404;5.318;2023-05-07T01:01:09;14.70;74.80
78779;DHT22;68121;52.404;5.318;2023-05-07T01:03:35;14.70;74.80
78779;DHT22;68121;52.404;5.318;2023-05-07T01:06:02;14.70;74.80
78779;DHT22;68121;52.404;5.318;2023-05-07T01:08:29;14.70;74.80
78779;DHT22;68121;52.404;5.318;2023-05-07T01:10:56;14.70;74.80
78779;DHT22;68121;52.404;5.318;2023-05-07T01:13:23;14.70;74.80
78779;DHT22;68121;52.404;5.318;2023-05-07T01:15:49;14.70;74.80
78779;DHT22;68121;52.404;5.318;2023-05-07T01:18:16;14.70;74.90
78779;DHT22;68121;52.404;5.318;2023-05-07T01:20:42;14.80;74.80
78779;DHT22;68121;52.404;5.318;2023-05-07T01:23:09;14.80;74.80
78779;DHT22;68121;52.404;5.318;2023-05-07T01:25:36;14.80;74.80
78779;DHT22;68121;52.404;5.318;2023-05-07T01:28:02;14.80;74.70
78779;DHT22;68121;52.404;5.318;2023-05-07T01:30:29;14.90;74.70
78779;DHT22;68121;52.404;5.318;2023-05-07T01:33:03;14.90;74.70
78779;DHT22;68121;52.404;5.318;2023-05-07T01:35:37;14.90;74.70
78779;DHT22;68121;52.404;5.318;2023-05-07T01:38:05;14.90;74.70
78779;DHT22;68121;52.404;5.318;2023-05-07T01:40:31;14.90;74.70
78779;DHT22;68121;52.404;5.318;2023-05-07T01:42:58;14.90;74.80
78779;DHT22;68121;52.404;5.318;2023-05-07T01:45:24;14.90;74.70
78779;DHT22;68121;52.404;5.318;2023-05-07T01:47:52;14.90;74.70
78779;DHT22;68121;52.404;5.318;2023-05-07T01:50:19;14.90;74.70
78779;DHT22;68121;52.404;5.318;2023-05-07T01:52:47;14.90;74.80
78779;DHT22;68121;52.404;5.318;2023-05-07T01:55:13;14.80;74.80
78779;DHT22;68121;52.404;5.318;2023-05-07T01:57:39;14.80;74.80
78779;DHT22;68121;52.404;5.318;2023-05-07T02:00:06;14.80;74.90
78779;DHT22;68121;52.404;5.318;2023-05-07T02:02:32;14.80;74.90
78779;DHT22;68121;52.404;5.318;2023-05-07T02:04:59;14.80;74.80
78779;DHT22;68121;52.404;5.318;2023-05-07T02:07:25;14.80;74.90
78779;DHT22;68121;52.404;5.318;2023-05-07T02:09:51;14.80;74.90
78779;DHT22;68121;52.404;5.318;2023-05-07T02:12:18;14.80;74.80
78779;DHT22;68121;52.404;5.318;2023-05-07T02:14:44;14.70;74.80
78779;DHT22;68121;52.404;5.318;2023-05-07T02:17:10;14.70;74.70
78779;DHT22;68121;52.404;5.318;2023-05-07T02:19:36;14.70;74.80
78779;DHT22;68121;52.404;5.318;2023-05-07T02:22:02;14.70;74.80
78779;DHT22;68121;52.404;5.318;2023-05-07T02:24:28;14.70;74.80
78779;DHT22;68121;52.404;5.318;2023-05-07T02:26:54;14.70;74.80
78779;DHT22;68121;52.404;5.318;2023-05-07T02:29:20;14.70;74.80
78779;DHT22;68121;52.404;5.318;2023-05-07T02:31:46;14.80;74.80
78779;DHT22;68121;52.404;5.318;2023-05-07T02:34:17;14.80;74.80
78779;DHT22;68121;52.404;5.318;2023-05-07T02:36:43;14.80;74.70
78779;DHT22;68121;52.404;5.318;2023-05-07T02:39:09;14.80;74.70
78779;DHT22;68121;52.404;5.318;2023-05-07T02:41:35;14.80;74.70
78779;DHT22;68121;52.404;5.318;2023-05-07T02:44:01;14.80;74.70
78779;DHT22;68121;52.404;5.318;2023-05-07T02:46:27;14.80;74.70
78779;DHT22;68121;52.404;5.318;2023-05-07T02:48:53;14.80;74.80
78779;DHT22;68121;52.404;5.318;2023-05-07T02:51:21;14.80;74.80
78779;DHT22;68121;52.404;5.318;2023-05-07T02:53:47;14.80;74.70
78779;DHT22;68121;52.404;5.318;2023-05-07T02:56:13;14.80;74.70
78779;DHT22;68121;52.404;5.318;2023-05-07T02:58:39;14.70;74.70
78779;DHT22;68121;52.404;5.318;2023-05-07T03:01:06;14.70;74.80
78779;DHT22;68121;52.404;5.318;2023-05-07T03:03:32;14.70;74.80
78779;DHT22;68121;52.404;5.318;2023-05-07T03:05:58;14.60;74.80
78779;DHT22;68121;52.404;5.318;2023-05-07T03:08:24;14.60;74.90
78779;DHT22;68121;52.404;5.318;2023-05-07T03:10:51;14.70;75.00
78779;DHT22;68121;52.404;5.318;2023-05-07T03:13:17;14.70;75.00
78779;DHT22;68121;52.404;5.318;2023-05-07T03:15:43;14.70;74.90
78779;DHT22;68121;52.404;5.318;2023-05-07T03:18:09;14.70;74.90
78779;DHT22;68121;52.404;5.318;2023-05-07T03:20:36;14.70;74.90
78779;DHT22;68121;52.404;5.318;2023-05-07T03:23:02;14.70;74.90
78779;DHT22;68121;52.404;5.318;2023-05-07T03:25:28;14.80;75.00
78779;DHT22;68121;52.404;5.318;2023-05-07T03:27:56;14.80;75.00
78779;DHT22;68121;52.404;5.318;2023-05-07T03:30:22;14.80;74.90
78779;DHT22;68121;52.404;5.318;2023-05-07T03:32:48;14.80;74.90
78779;DHT22;68121;52.404;5.318;2023-05-07T03:35:14;14.80;74.90
78779;DHT22;68121;52.404;5.318;2023-05-07T03:37:40;14.80;74.90
78779;DHT22;68121;52.404;5.318;2023-05-07T03:40:07;14.80;74.90
78779;DHT22;68121;52.404;5.318;2023-05-07T03:42:33;14.80;74.80
78779;DHT22;68121;52.404;5.318;2023-05-07T03:45:00;14.70;74.90
78779;DHT22;68121;52.404;5.318;2023-05-07T03:47:26;14.70;74.90
78779;DHT22;68121;52.404;5.318;2023-05-07T03:49:52;14.70;74.90
78779;DHT22;68121;52.404;5.318;2023-05-07T03:52:19;14.60;74.90
78779;DHT22;68121;52.404;5.318;2023-05-07T03:54:49;14.60;75.00
78779;DHT22;68121;52.404;5.318;2023-05-07T03:57:15;14.60;75.00
78779;DHT22;68121;52.404;5.318;2023-05-07T03:59:41;14.60;75.00
78779;DHT22;68121;52.404;5.318;2023-05-07T04:02:07;14.60;74.90
78779;DHT22;68121;52.404;5.318;2023-05-07T04:04:33;14.60;74.80
78779;DHT22;68121;52.404;5.318;2023-05-07T04:06:59;14.60;74.80
78779;DHT22;68121;52.404;5.318;2023-05-07T04:09:26;14.60;74.80
78779;DHT22;68121;52.404;5.318;2023-05-07T04:11:52;14.60;74.80
78779;DHT22;68121;52.404;5.318;2023-05-07T04:14:18;14.60;74.80
78779;DHT22;68121;52.404;5.318;2023-05-07T04:16:44;14.60;74.80
78779;DHT22;68121;52.404;5.318;2023-05-07T04:19:10;14.60;74.80
78779;DHT22;68121;52.404;5.318;2023-05-07T04:21:36;14.60;74.80
78779;DHT22;68121;52.404;5.318;2023-05-07T04:24:03;14.50;74.80
78779;DHT22;68121;52.404;5.318;2023-05-07T04:26:29;14.50;74.90
78779;DHT22;68121;52.404;5.318;2023-05-07T04:28:55;14.50;74.90
78779;DHT22;68121;52.404;5.318;2023-05-07T04:31:23;14.50;74.90
78779;DHT22;68121;52.404;5.318;2023-05-07T04:33:49;14.50;74.90
78779;DHT22;68121;52.404;5.318;2023-05-07T04:36:17;14.50;74.90
78779;DHT22;68121;52.404;5.318;2023-05-07T04:38:43;14.50;74.90
78779;DHT22;68121;52.404;5.318;2023-05-07T04:41:09;14.50;74.90
78779;DHT22;68121;52.404;5.318;2023-05-07T04:43:35;14.50;75.00
78779;DHT22;68121;52.404;5.318;2023-05-07T04:46:01;14.50;75.00
78779;DHT22;68121;52.404;5.318;2023-05-07T04:48:27;14.50;75.10
78779;DHT22;68121;52.404;5.318;2023-05-07T04:50:54;14.50;75.10
78779;DHT22;68121;52.404;5.318;2023-05-07T04:53:21;14.40;75.10
78779;DHT22;68121;52.404;5.318;2023-05-07T04:55:47;14.40;75.20
78779;DHT22;68121;52.404;5.318;2023-05-07T04:58:13;14.40;75.30
78779;DHT22;68121;52.404;5.318;2023-05-07T05:00:39;14.40;75.30
78779;DHT22;68121;52.404;5.318;2023-05-07T05:03:09;14.30;75.40
78779;DHT22;68121;52.404;5.318;2023-05-07T05:05:35;14.30;75.40
78779;DHT22;68121;52.404;5.318;2023-05-07T05:08:01;14.30;75.50
78779;DHT22;68121;52.404;5.318;2023-05-07T05:10:27;14.30;75.60
78779;DHT22;68121;52.404;5.318;2023-05-07T05:12:53;14.30;75.70
78779;DHT22;68121;52.404;5.318;2023-05-07T05:15:19;14.30;75.70
78779;DHT22;68121;52.404;5.318;2023-05-07T05:17:45;14.40;75.70
78779;DHT22;68121;52.404;5.318;2023-05-07T05:20:11;14.40;75.80
78779;DHT22;68121;52.404;5.318;2023-05-07T05:22:38;14.40;75.80
78779;DHT22;68121;52.404;5.318;2023-05-07T05:25:05;14.40;75.80
78779;DHT22;68121;52.404;5.318;2023-05-07T05:27:31;14.40;75.80
78779;DHT22;68121;52.404;5.318;2023-05-07T05:29:57;14.40;75.90
78779;DHT22;68121;52.404;5.318;2023-05-07T05:32:23;14.40;76.00
78779;DHT22;68121;52.404;5.318;2023-05-07T05:34:49;14.40;75.90
78779;DHT22;68121;52.404;5.318;2023-05-07T05:37:15;14.40;76.00
78779;DHT22;68121;52.404;5.318;2023-05-07T05:39:41;14.40;76.10
78779;DHT22;68121;52.404;5.318;2023-05-07T05:42:08;14.40;76.10
78779;DHT22;68121;52.404;5.318;2023-05-07T05:44:34;14.50;76.20
78779;DHT22;68121;52.404;5.318;2023-05-07T05:47:00;14.50;76.20
78779;DHT22;68121;52.404;5.318;2023-05-07T05:49:26;14.50;76.20
78779;DHT22;68121;52.404;5.318;2023-05-07T05:51:52;14.50;76.20
78779;DHT22;68121;52.404;5.318;2023-05-07T05:54:18;14.50;76.10
78779;DHT22;68121;52.404;5.318;2023-05-07T05:56:45;14.50;76.10
78779;DHT22;68121;52.404;5.318;2023-05-07T05:59:11;14.60;76.20
78779;DHT22;68121;52.404;5.318;2023-05-07T06:01:37;14.60;76.20
78779;DHT22;68121;52.404;5.318;2023-05-07T06:04:03;14.70;76.20
78779;DHT22;68121;52.404;5.318;2023-05-07T06:06:29;14.70;76.20
78779;DHT22;68121;52.404;5.318;2023-05-07T06:08:57;14.70;76.20
78779;DHT22;68121;52.404;5.318;2023-05-07T06:11:23;14.70;76.20
78779;DHT22;68121;52.404;5.318;2023-05-07T06:13:49;14.80;76.20
78779;DHT22;68121;52.404;5.318;2023-05-07T06:16:15;14.80;76.20
78779;DHT22;68121;52.404;5.318;2023-05-07T06:18:41;14.80;76.20
78779;DHT22;68121;52.404;5.318;2023-05-07T06:21:07;14.90;76.20
78779;DHT22;68121;52.404;5.318;2023-05-07T06:23:33;14.90;76.10
78779;DHT22;68121;52.404;5.318;2023-05-07T06:25:59;15.00;76.00
78779;DHT22;68121;52.404;5.318;2023-05-07T06:28:25;14.90;76.10
78779;DHT22;68121;52.404;5.318;2023-05-07T06:30:51;14.90;76.10
78779;DHT22;68121;52.404;5.318;2023-05-07T06:33:17;15.00;76.10
78779;DHT22;68121;52.404;5.318;2023-05-07T06:35:45;15.00;76.10
78779;DHT22;68121;52.404;5.318;2023-05-07T06:38:11;15.00;76.10
78779;DHT22;68121;52.404;5.318;2023-05-07T06:40:38;15.00;76.10
78779;DHT22;68121;52.404;5.318;2023-05-07T06:43:04;15.10;76.00
78779;DHT22;68121;52.404;5.318;2023-05-07T06:45:30;15.20;75.90
78779;DHT22;68121;52.404;5.318;2023-05-07T06:47:56;15.20;75.90
78779;DHT22;68121;52.404;5.318;2023-05-07T06:50:22;15.20;75.90
78779;DHT22;68121;52.404;5.318;2023-05-07T06:52:48;15.20;75.90
78779;DHT22;68121;52.404;5.318;2023-05-07T06:55:14;15.20;75.90
78779;DHT22;68121;52.404;5.318;2023-05-07T06:57:40;15.20;75.90
78779;DHT22;68121;52.404;5.318;2023-05-07T07:00:07;15.20;75.90
78779;DHT22;68121;52.404;5.318;2023-05-07T07:02:34;15.30;75.90
78779;DHT22;68121;52.404;5.318;2023-05-07T07:05:00;15.30;75.90
78779;DHT22;68121;52.404;5.318;2023-05-07T07:07:26;15.30;75.80
78779;DHT22;68121;52.404;5.318;2023-05-07T07:09:54;15.30;75.80
78779;DHT22;68121;52.404;5.318;2023-05-07T07:12:21;15.30;75.70
78779;DHT22;68121;52.404;5.318;2023-05-07T07:14:48;15.30;75.80
78779;DHT22;68121;52.404;5.318;2023-05-07T07:17:14;15.30;75.70
78779;DHT22;68121;52.404;5.318;2023-05-07T07:19:40;15.40;75.70
78779;DHT22;68121;52.404;5.318;2023-05-07T07:22:06;15.50;75.70
78779;DHT22;68121;52.404;5.318;2023-05-07T07:24:32;15.60;75.50
78779;DHT22;68121;52.404;5.318;2023-05-07T07:26:58;15.60;75.40
78779;DHT22;68121;52.404;5.318;2023-05-07T07:29:24;15.70;75.20
78779;DHT22;68121;52.404;5.318;2023-05-07T07:31:52;15.80;75.10
78779;DHT22;68121;52.404;5.318;2023-05-07T07:34:18;15.80;75.10
78779;DHT22;68121;52.404;5.318;2023-05-07T07:36:45;15.80;75.00
78779;DHT22;68121;52.404;5.318;2023-05-07T07:39:11;15.80;74.80
78779;DHT22;68121;52.404;5.318;2023-05-07T07:41:37;15.80;74.80
78779;DHT22;68121;52.404;5.318;2023-05-07T07:44:03;15.80;74.80
78779;DHT22;68121;52.404;5.318;2023-05-07T07:46:32;15.80;74.90
78779;DHT22;68121;52.404;5.318;2023-05-07T07:49:00;15.80;74.80
78779;DHT22;68121;52.404;5.318;2023-05-07T07:51:26;15.80;74.70
78779;DHT22;68121;52.404;5.318;2023-05-07T07:53:52;15.80;74.60
78779;DHT22;68121;52.404;5.318;2023-05-07T07:56:18;15.90;74.50
78779;DHT22;68121;52.404;5.318;2023-05-07T07:58:44;15.90;74.40
78779;DHT22;68121;52.404;5.318;2023-05-07T08:01:11;16.00;74.40
78779;DHT22;68121;52.404;5.318;2023-05-07T08:03:38;16.10;74.30
78779;DHT22;68121;52.404;5.318;2023-05-07T08:06:04;16.20;74.00
78779;DHT22;68121;52.404;5.318;2023-05-07T08:08:30;16.40;73.90
78779;DHT22;68121;52.404;5.318;2023-05-07T08:10:56;16.50;73.60
78779;DHT22;68121;52.404;5.318;2023-05-07T08:13:22;16.50;73.50
78779;DHT22;68121;52.404;5.318;2023-05-07T08:15:48;16.50;73.40
78779;DHT22;68121;52.404;5.318;2023-05-07T08:18:14;16.60;73.30
78779;DHT22;68121;52.404;5.318;2023-05-07T08:20:41;16.70;73.30
78779;DHT22;68121;52.404;5.318;2023-05-07T08:23:07;16.90;73.10
78779;DHT22;68121;52.404;5.318;2023-05-07T08:25:33;17.00;72.90
78779;DHT22;68121;52.404;5.318;2023-05-07T08:28:00;17.00;72.70
78779;DHT22;68121;52.404;5.318;2023-05-07T08:30:27;17.00;72.60
78779;DHT22;68121;52.404;5.318;2023-05-07T08:32:53;17.10;72.50
78779;DHT22;68121;52.404;5.318;2023-05-07T08:35:19;17.20;72.40
78779;DHT22;68121;52.404;5.318;2023-05-07T08:37:45;17.20;72.40
78779;DHT22;68121;52.404;5.318;2023-05-07T08:40:11;17.40;72.30
78779;DHT22;68121;52.404;5.318;2023-05-07T08:42:37;17.40;72.00
78779;DHT22;68121;52.404;5.318;2023-05-07T08:45:09;17.50;72.00
78779;DHT22;68121;52.404;5.318;2023-05-07T08:47:51;17.60;71.80
78779;DHT22;68121;52.404;5.318;2023-05-07T08:50:19;17.70;71.50
78779;DHT22;68121;52.404;5.318;2023-05-07T08:52:46;17.80;71.50
78779;DHT22;68121;52.404;5.318;2023-05-07T08:55:12;17.80;71.20
78779;DHT22;68121;52.404;5.318;2023-05-07T08:57:39;17.80;71.20
78779;DHT22;68121;52.404;5.318;2023-05-07T09:00:06;17.70;71.30
78779;DHT22;68121;52.404;5.318;2023-05-07T09:02:35;17.60;71.20
78779;DHT22;68121;52.404;5.318;2023-05-07T09:05:01;17.50;71.30
78779;DHT22;68121;52.404;5.318;2023-05-07T09:07:27;17.50;71.50
78779;DHT22;68121;52.404;5.318;2023-05-07T09:09:53;17.60;71.50
78779;DHT22;68121;52.404;5.318;2023-05-07T09:12:21;17.60;71.20
78779;DHT22;68121;52.404;5.318;2023-05-07T09:14:47;17.60;71.10
78779;DHT22;68121;52.404;5.318;2023-05-07T09:17:15;17.50;71.10
78779;DHT22;68121;52.404;5.318;2023-05-07T09:19:46;17.50;71.00
78779;DHT22;68121;52.404;5.318;2023-05-07T09:22:13;17.50;71.00
78779;DHT22;68121;52.404;5.318;2023-05-07T09:24:39;17.50;71.10
78779;DHT22;68121;52.404;5.318;2023-05-07T09:27:06;17.50;71.10
78779;DHT22;68121;52.404;5.318;2023-05-07T09:29:32;17.50;71.10
78779;DHT22;68121;52.404;5.318;2023-05-07T09:32:03;17.50;71.10
78779;DHT22;68121;52.404;5.318;2023-05-07T09:34:29;17.50;71.20
78779;DHT22;68121;52.404;5.318;2023-05-07T09:37:00;17.50;71.20
78779;DHT22;68121;52.404;5.318;2023-05-07T09:39:26;17.60;71.20
78779;DHT22;68121;52.404;5.318;2023-05-07T09:42:05;17.60;71.20
78779;DHT22;68121;52.404;5.318;2023-05-07T09:44:33;17.70;71.20
78779;DHT22;68121;52.404;5.318;2023-05-07T09:47:00;17.80;71.20
78779;DHT22;68121;52.404;5.318;2023-05-07T09:49:29;17.80;71.20
78779;DHT22;68121;52.404;5.318;2023-05-07T09:52:00;18.00;71.20
78779;DHT22;68121;52.404;5.318;2023-05-07T09:54:26;18.00;71.00
78779;DHT22;68121;52.404;5.318;2023-05-07T09:56:56;18.00;71.00
78779;DHT22;68121;52.404;5.318;2023-05-07T09:59:23;18.00;71.00
78779;DHT22;68121;52.404;5.318;2023-05-07T10:01:50;18.10;71.00
78779;DHT22;68121;52.404;5.318;2023-05-07T10:04:18;18.20;70.90
78779;DHT22;68121;52.404;5.318;2023-05-07T10:06:46;18.30;70.70
78779;DHT22;68121;52.404;5.318;2023-05-07T10:09:13;18.30;70.70
78779;DHT22;68121;52.404;5.318;2023-05-07T10:11:39;18.40;70.70
78779;DHT22;68121;52.404;5.318;2023-05-07T10:14:06;18.40;70.60
78779;DHT22;68121;52.404;5.318;2023-05-07T10:16:33;18.60;70.30
78779;DHT22;68121;52.404;5.318;2023-05-07T10:19:08;18.80;70.00
78779;DHT22;68121;52.404;5.318;2023-05-07T10:21:39;19.00;69.90
78779;DHT22;68121;52.404;5.318;2023-05-07T10:24:09;19.30;69.60
78779;DHT22;68121;52.404;5.318;2023-05-07T10:26:44;19.50;69.00
78779;DHT22;68121;52.404;5.318;2023-05-07T10:29:21;19.70;68.80
78779;DHT22;68121;52.404;5.318;2023-05-07T10:34:41;20.30;67.30
78779;DHT22;68121;52.404;5.318;2023-05-07T10:37:09;20.50;67.10
78779;DHT22;68121;52.404;5.318;2023-05-07T10:39:37;20.50;66.90
78779;DHT22;68121;52.404;5.318;2023-05-07T10:42:13;20.60;66.40
78779;DHT22;68121;52.404;5.318;2023-05-07T10:44:40;20.70;65.70
78779;DHT22;68121;52.404;5.318;2023-05-07T10:47:08;20.80;65.50
78779;DHT22;68121;52.404;5.318;2023-05-07T10:52:18;20.60;65.40
78779;DHT22;68121;52.404;5.318;2023-05-07T10:54:45;20.70;65.40
78779;DHT22;68121;52.404;5.318;2023-05-07T10:59:56;20.60;65.40
78779;DHT22;68121;52.404;5.318;2023-05-07T11:02:22;20.70;65.40
78779;DHT22;68121;52.404;5.318;2023-05-07T11:05:22;20.80;65.20
78779;DHT22;68121;52.404;5.318;2023-05-07T11:10:21;20.80;65.00
78779;DHT22;68121;52.404;5.318;2023-05-07T11:12:51;20.90;64.90
78779;DHT22;68121;52.404;5.318;2023-05-07T11:15:38;20.90;64.60
78779;DHT22;68121;52.404;5.318;2023-05-07T11:18:04;20.90;64.40
78779;DHT22;68121;52.404;5.318;2023-05-07T11:20:58;21.00;64.60
78779;DHT22;68121;52.404;5.318;2023-05-07T11:28:37;21.30;64.10
78779;DHT22;68121;52.404;5.318;2023-05-07T11:31:04;21.50;63.70
78779;DHT22;68121;52.404;5.318;2023-05-07T11:33:30;21.70;63.00
78779;DHT22;68121;52.404;5.318;2023-05-07T11:35:57;21.70;62.70
78779;DHT22;68121;52.404;5.318;2023-05-07T11:38:24;21.90;62.50
78779;DHT22;68121;52.404;5.318;2023-05-07T11:40:58;22.00;62.20
78779;DHT22;68121;52.404;5.318;2023-05-07T11:43:26;22.00;62.20
78779;DHT22;68121;52.404;5.318;2023-05-07T11:45:53;22.10;62.20
78779;DHT22;68121;52.404;5.318;2023-05-07T11:48:21;22.00;62.20
78779;DHT22;68121;52.404;5.318;2023-05-07T11:51:00;21.90;61.80
78779;DHT22;68121;52.404;5.318;2023-05-07T11:53:28;21.70;61.60
78779;DHT22;68121;52.404;5.318;2023-05-07T11:55:57;21.60;61.80
78779;DHT22;68121;52.404;5.318;2023-05-07T11:58:24;21.50;61.90
78779;DHT22;68121;52.404;5.318;2023-05-07T12:00:52;21.50;61.90
78779;DHT22;68121;52.404;5.318;2023-05-07T12:03:18;21.40;62.00
78779;DHT22;68121;52.404;5.318;2023-05-07T12:05:45;21.30;62.00
78779;DHT22;68121;52.404;5.318;2023-05-07T12:08:15;21.30;62.20
78779;DHT22;68121;52.404;5.318;2023-05-07T12:10:43;21.40;62.10
78779;DHT22;68121;52.404;5.318;2023-05-07T12:13:19;21.40;62.10
78779;DHT22;68121;52.404;5.318;2023-05-07T12:15:46;21.50;62.10
78779;DHT22;68121;52.404;5.318;2023-05-07T12:18:13;21.70;62.10
78779;DHT22;68121;52.404;5.318;2023-05-07T12:20:39;21.90;62.00
78779;DHT22;68121;52.404;5.318;2023-05-07T12:23:06;22.00;61.70
78779;DHT22;68121;52.404;5.318;2023-05-07T12:25:36;22.00;61.30
78779;DHT22;68121;52.404;5.318;2023-05-07T12:28:03;22.00;61.00
78779;DHT22;68121;52.404;5.318;2023-05-07T12:30:37;22.00;61.00
78779;DHT22;68121;52.404;5.318;2023-05-07T12:33:04;22.00;60.90
78779;DHT22;68121;52.404;5.318;2023-05-07T12:35:31;22.00;60.80
78779;DHT22;68121;52.404;5.318;2023-05-07T12:37:58;22.10;60.90
78779;DHT22;68121;52.404;5.318;2023-05-07T12:40:42;22.10;60.70
78779;DHT22;68121;52.404;5.318;2023-05-07T12:43:24;22.30;60.20
78779;DHT22;68121;52.404;5.318;2023-05-07T12:45:53;22.30;60.10
78779;DHT22;68121;52.404;5.318;2023-05-07T12:48:21;22.30;60.20
78779;DHT22;68121;52.404;5.318;2023-05-07T12:50:51;22.30;60.00
78779;DHT22;68121;52.404;5.318;2023-05-07T12:53:21;22.30;59.90
78779;DHT22;68121;52.404;5.318;2023-05-07T12:55:48;22.30;60.10
78779;DHT22;68121;52.404;5.318;2023-05-07T12:58:29;22.50;60.40
78779;DHT22;68121;52.404;5.318;2023-05-07T13:00:56;22.70;60.20
78779;DHT22;68121;52.404;5.318;2023-05-07T13:03:29;22.70;59.90
78779;DHT22;68121;52.404;5.318;2023-05-07T13:05:58;22.70;59.70
78779;DHT22;68121;52.404;5.318;2023-05-07T13:08:26;22.60;59.90
78779;DHT22;68121;52.404;5.318;2023-05-07T13:10:53;22.70;60.10
78779;DHT22;68121;52.404;5.318;2023-05-07T13:13:20;22.90;59.80
78779;DHT22;68121;52.404;5.318;2023-05-07T13:15:47;23.00;59.40
78779;DHT22;68121;52.404;5.318;2023-05-07T13:18:13;23.10;59.30
78779;DHT22;68121;52.404;5.318;2023-05-07T13:20:39;23.10;59.10
78779;DHT22;68121;52.404;5.318;2023-05-07T13:23:05;23.20;58.90
78779;DHT22;68121;52.404;5.318;2023-05-07T13:25:34;23.20;58.50
78779;DHT22;68121;52.404;5.318;2023-05-07T13:28:00;23.10;58.40
78779;DHT22;68121;52.404;5.318;2023-05-07T13:30:26;23.00;58.40
78779;DHT22;68121;52.404;5.318;2023-05-07T13:32:55;22.90;58.40
78779;DHT22;68121;52.404;5.318;2023-05-07T13:35:21;22.80;58.20
78779;DHT22;68121;52.404;5.318;2023-05-07T13:37:47;22.80;58.30
78779;DHT22;68121;52.404;5.318;2023-05-07T13:40:15;22.90;58.00
78779;DHT22;68121;52.404;5.318;2023-05-07T13:42:42;22.90;57.70
78779;DHT22;68121;52.404;5.318;2023-05-07T13:45:09;23.00;57.60
78779;DHT22;68121;52.404;5.318;2023-05-07T13:47:35;22.80;57.40
78779;DHT22;68121;52.404;5.318;2023-05-07T13:50:01;22.70;57.60
78779;DHT22;68121;52.404;5.318;2023-05-07T13:52:27;22.70;57.80
78779;DHT22;68121;52.404;5.318;2023-05-07T13:54:53;22.70;58.20
78779;DHT22;68121;52.404;5.318;2023-05-07T13:57:20;22.70;58.50
78779;DHT22;68121;52.404;5.318;2023-05-07T13:59:46;22.70;58.30
78779;DHT22;68121;52.404;5.318;2023-05-07T14:02:12;22.60;58.00
78779;DHT22;68121;52.404;5.318;2023-05-07T14:04:38;22.50;58.00
78779;DHT22;68121;52.404;5.318;2023-05-07T14:07:04;22.40;58.10
78779;DHT22;68121;52.404;5.318;2023-05-07T14:09:31;22.30;58.00
78779;DHT22;68121;52.404;5.318;2023-05-07T14:11:57;22.20;58.00
78779;DHT22;68121;52.404;5.318;2023-05-07T14:14:23;22.10;57.90
78779;DHT22;68121;52.404;5.318;2023-05-07T14:16:49;22.00;58.00
78779;DHT22;68121;52.404;5.318;2023-05-07T14:19:15;21.90;58.20
78779;DHT22;68121;52.404;5.318;2023-05-07T14:21:41;21.80;58.50
78779;DHT22;68121;52.404;5.318;2023-05-07T14:24:07;21.70;58.70
78779;DHT22;68121;52.404;5.318;2023-05-07T14:26:34;21.50;59.00
78779;DHT22;68121;52.404;5.318;2023-05-07T14:29:00;21.40;59.20
78779;DHT22;68121;52.404;5.318;2023-05-07T14:31:26;21.40;59.50
78779;DHT22;68121;52.404;5.318;2023-05-07T14:33:52;21.30;59.80
78779;DHT22;68121;52.404;5.318;2023-05-07T14:36:19;21.40;60.00
78779;DHT22;68121;52.404;5.318;2023-05-07T14:38:50;21.40;60.20
78779;DHT22;68121;52.404;5.318;2023-05-07T14:41:16;21.50;60.20
78779;DHT22;68121;52.404;5.318;2023-05-07T14:43:42;21.50;60.20
78779;DHT22;68121;52.404;5.318;2023-05-07T14:46:08;21.40;60.30
78779;DHT22;68121;52.404;5.318;2023-05-07T14:48:34;21.40;60.40
78779;DHT22;68121;52.404;5.318;2023-05-07T14:51:03;21.40;60.50
78779;DHT22;68121;52.404;5.318;2023-05-07T14:53:30;21.30;60.40
78779;DHT22;68121;52.404;5.318;2023-05-07T14:55:56;21.30;60.40
78779;DHT22;68121;52.404;5.318;2023-05-07T14:58:22;21.30;60.50
78779;DHT22;68121;52.404;5.318;2023-05-07T15:00:48;21.20;60.70
78779;DHT22;68121;52.404;5.318;2023-05-07T15:03:14;21.20;60.60
78779;DHT22;68121;52.404;5.318;2023-05-07T15:05:40;21.20;60.50
78779;DHT22;68121;52.404;5.318;2023-05-07T15:08:07;21.10;60.30
78779;DHT22;68121;52.404;5.318;2023-05-07T15:10:36;21.10;60.30
78779;DHT22;68121;52.404;5.318;2023-05-07T15:13:10;21.00;60.50
78779;DHT22;68121;52.404;5.318;2023-05-07T15:15:36;21.00;60.50
78779;DHT22;68121;52.404;5.318;2023-05-07T15:18:02;20.90;60.60
78779;DHT22;68121;52.404;5.318;2023-05-07T15:20:28;20.90;60.40
78779;DHT22;68121;52.404;5.318;2023-05-07T15:22:55;20.90;60.40
78779;DHT22;68121;52.404;5.318;2023-05-07T15:25:22;20.80;60.30
78779;DHT22;68121;52.404;5.318;2023-05-07T15:27:48;20.70;60.20
78779;DHT22;68121;52.404;5.318;2023-05-07T15:30:14;20.60;60.30
78779;DHT22;68121;52.404;5.318;2023-05-07T15:32:41;20.50;60.30
78779;DHT22;68121;52.404;5.318;2023-05-07T15:35:08;20.50;60.50
78779;DHT22;68121;52.404;5.318;2023-05-07T15:37:34;20.50;60.70
78779;DHT22;68121;52.404;5.318;2023-05-07T15:40:01;20.40;60.70
78779;DHT22;68121;52.404;5.318;2023-05-07T15:42:32;20.40;61.30
78779;DHT22;68121;52.404;5.318;2023-05-07T15:44:58;20.30;61.70